Time,TemperatureF,DewpointF,PressureIn,WindDirection,WindDirectionDegrees,WindSpeedMPH,WindSpeedGustMPH,Humidity,HourlyPrecipIn,Conditions,Clouds,dailyrainin,SoftwareType,DateUTC
2013-02-24 00:00:00,70.4,69.0,29.96,SSE,155,2.0,3.0,96,0.01,,,0.02,weatherlink.com 1.10,2013-02-24 05:00:00,
2013-02-24 00:14:00,70.3,69.0,29.95,SSE,153,1.0,3.0,96,0.01,,,0.00,weatherlink.com 1.10,2013-02-24 05:14:00,
2013-02-24 00:31:00,70.0,69.0,29.95,SSE,153,2.0,3.0,96,0.01,,,0.00,weatherlink.com 1.10,2013-02-24 05:31:00,
2013-02-24 00:46:00,69.7,69.0,29.95,SSE,157,1.0,3.0,97,0.00,,,0.00,weatherlink.com 1.10,2013-02-24 05:46:00,
2013-02-24 01:01:00,69.5,68.0,29.95,SSE,163,2.0,3.0,96,0.00,,,0.00,weatherlink.com 1.10,2013-02-24 06:01:00,
2013-02-24 01:16:00,69.4,69.0,29.94,SSE,163,2.0,4.0,97,0.00,,,0.00,weatherlink.com 1.10,2013-02-24 06:16:00,
2013-02-24 01:32:00,69.1,68.0,29.94,SSE,163,2.0,4.0,97,0.00,,,0.00,weatherlink.com 1.10,2013-02-24 06:32:00,
2013-02-24 01:47:00,69.1,68.0,29.94,SSE,164,3.0,4.0,97,0.00,,,0.00,weatherlink.com 1.10,2013-02-24 06:47:00,
2013-02-24 02:02:00,69.2,68.0,29.93,SSE,155,1.0,5.0,97,0.00,,,0.00,weatherlink.com 1.10,2013-02-24 07:02:00,
2013-02-24 02:16:00,69.3,69.0,29.93,SSE,161,2.0,4.0,97,0.00,,,0.00,weatherlink.com 1.10,2013-02-24 07:16:00,
2013-02-24 02:31:00,69.3,69.0,29.92,SSE,148,2.0,3.0,97,0.00,,,0.00,weatherlink.com 1.10,2013-02-24 07:31:00,
2013-02-24 02:46:00,69.2,68.0,29.92,South,190,4.0,6.0,97,0.00,,,0.00,weatherlink.com 1.10,2013-02-24 07:46:00,
2013-02-24 03:01:00,69.3,69.0,29.92,SSE,155,1.0,6.0,97,0.00,,,0.00,weatherlink.com 1.10,2013-02-24 08:01:00,
2013-02-24 03:16:00,69.2,68.0,29.92,SSE,162,1.0,5.0,97,0.00,,,0.00,weatherlink.com 1.10,2013-02-24 08:16:00,
2013-02-24 03:31:00,69.1,68.0,29.91,SSE,157,2.0,4.0,97,0.00,,,0.00,weatherlink.com 1.10,2013-02-24 08:31:00,
2013-02-24 03:46:00,69.0,68.0,29.91,South,190,1.0,8.0,97,0.00,,,0.00,weatherlink.com 1.10,2013-02-24 08:46:00,
2013-02-24 04:01:00,68.8,68.0,29.91,SSE,156,2.0,8.0,97,0.00,,,0.00,weatherlink.com 1.10,2013-02-24 09:01:00,
2013-02-24 04:16:00,69.2,68.0,29.91,SSE,150,3.0,7.0,97,0.00,,,0.00,weatherlink.com 1.10,2013-02-24 09:16:00,
2013-02-24 04:32:00,69.6,69.0,29.91,SSE,155,1.0,5.0,97,0.00,,,0.00,weatherlink.com 1.10,2013-02-24 09:32:00,
2013-02-24 04:47:00,69.8,69.0,29.91,SSE,157,2.0,5.0,97,0.01,,,0.01,weatherlink.com 1.10,2013-02-24 09:47:00,
2013-02-24 05:03:00,70.0,69.0,29.91,SSE,159,0.0,4.0,97,0.01,,,0.01,weatherlink.com 1.10,2013-02-24 10:03:00,
2013-02-24 05:18:00,70.1,69.0,29.91,SSE,158,1.0,4.0,97,0.01,,,0.01,weatherlink.com 1.10,2013-02-24 10:18:00,
2013-02-24 05:33:00,70.1,69.0,29.92,SSE,158,1.0,4.0,97,0.01,,,0.01,weatherlink.com 1.10,2013-02-24 10:33:00,
2013-02-24 05:48:00,70.4,70.0,29.92,SSE,163,3.0,5.0,97,0.00,,,0.01,weatherlink.com 1.10,2013-02-24 10:48:00,
2013-02-24 06:03:00,70.7,70.0,29.92,SSE,154,1.0,4.0,97,0.00,,,0.01,weatherlink.com 1.10,2013-02-24 11:03:00,
2013-02-24 06:17:00,70.8,70.0,29.91,SSE,153,3.0,4.0,97,0.00,,,0.01,weatherlink.com 1.10,2013-02-24 11:17:00,
2013-02-24 06:32:00,70.7,70.0,29.93,South,190,0.0,4.0,97,0.00,,,0.01,weatherlink.com 1.10,2013-02-24 11:32:00,
2013-02-24 06:47:00,71.0,70.0,29.93,SSE,158,1.0,3.0,97,0.00,,,0.01,weatherlink.com 1.10,2013-02-24 11:47:00,
2013-02-24 07:03:00,71.1,70.0,29.93,SSW,196,0.0,4.0,97,0.00,,,0.01,weatherlink.com 1.10,2013-02-24 12:03:00,
2013-02-24 07:18:00,71.2,70.0,29.94,SSW,196,0.0,2.0,97,0.00,,,0.01,weatherlink.com 1.10,2013-02-24 12:18:00,
2013-02-24 07:33:00,71.2,70.0,29.94,SSW,196,1.0,2.0,97,0.00,,,0.01,weatherlink.com 1.10,2013-02-24 12:33:00,
2013-02-24 07:48:00,71.6,71.0,29.95,SSW,196,2.0,2.0,97,0.00,,,0.01,weatherlink.com 1.10,2013-02-24 12:48:00,
2013-02-24 08:03:00,71.5,71.0,29.95,South,171,4.0,4.0,97,0.00,,,0.01,weatherlink.com 1.10,2013-02-24 13:03:00,
2013-02-24 08:19:00,71.8,71.0,29.96,SSE,154,4.0,4.0,97,0.00,,,0.01,weatherlink.com 1.10,2013-02-24 13:19:00,
2013-02-24 08:34:00,72.3,71.0,29.96,SSE,154,1.0,4.0,97,0.00,,,0.01,weatherlink.com 1.10,2013-02-24 13:34:00,
2013-02-24 08:49:00,72.7,71.0,29.96,SSE,167,3.0,4.0,95,0.00,,,0.01,weatherlink.com 1.10,2013-02-24 13:49:00,
2013-02-24 09:04:00,73.6,72.0,29.97,SW,229,1.0,4.0,94,0.00,,,0.01,weatherlink.com 1.10,2013-02-24 14:04:00,
2013-02-24 09:19:00,75.3,73.0,29.98,ESE,121,0.0,2.0,91,0.00,,,0.01,weatherlink.com 1.10,2013-02-24 14:19:00,
2013-02-24 09:34:00,76.3,72.0,29.98,ESE,122,1.0,3.0,87,0.00,,,0.01,weatherlink.com 1.10,2013-02-24 14:34:00,
2013-02-24 09:49:00,79.2,74.0,29.98,SE,129,3.0,3.0,84,0.00,,,0.01,weatherlink.com 1.10,2013-02-24 14:49:00,
2013-02-24 10:04:00,78.8,72.0,29.98,SE,130,1.0,3.0,79,0.00,,,0.01,weatherlink.com 1.10,2013-02-24 15:04:00,
2013-02-24 10:20:00,78.6,72.0,29.98,SE,131,0.0,2.0,80,0.00,,,0.01,weatherlink.com 1.10,2013-02-24 15:20:00,
2013-02-24 10:36:00,78.9,72.0,29.98,SE,131,1.0,3.0,79,0.00,,,0.01,weatherlink.com 1.10,2013-02-24 15:36:00,
2013-02-24 10:50:00,79.8,73.0,29.97,SW,231,2.0,4.0,80,0.00,,,0.01,weatherlink.com 1.10,2013-02-24 15:50:00,
2013-02-24 11:05:00,79.2,72.0,29.97,South,184,1.0,3.0,78,0.00,,,0.01,weatherlink.com 1.10,2013-02-24 16:05:00,
2013-02-24 11:20:00,80.1,73.0,29.97,WSW,237,1.0,4.0,80,0.00,,,0.01,weatherlink.com 1.10,2013-02-24 16:20:00,
2013-02-24 11:35:00,81.1,74.0,29.97,SW,229,2.0,3.0,78,0.00,,,0.01,weatherlink.com 1.10,2013-02-24 16:35:00,
2013-02-24 11:51:00,81.6,74.0,29.96,SW,222,2.0,5.0,77,0.00,,,0.01,weatherlink.com 1.10,2013-02-24 16:51:00,
2013-02-24 12:06:00,82.1,74.0,29.96,SW,222,1.0,3.0,76,0.00,,,0.01,weatherlink.com 1.10,2013-02-24 17:06:00,
2013-02-24 12:22:00,82.5,74.0,29.95,SW,223,1.0,5.0,75,0.00,,,0.01,weatherlink.com 1.10,2013-02-24 17:22:00,
2013-02-24 12:36:00,81.8,74.0,29.95,SW,219,2.0,6.0,76,0.00,,,0.01,weatherlink.com 1.10,2013-02-24 17:36:00,
2013-02-24 12:51:00,80.4,73.0,29.95,SSW,209,1.0,4.0,78,0.00,,,0.01,weatherlink.com 1.10,2013-02-24 17:51:00,
2013-02-24 13:06:00,80.0,74.0,29.94,SW,232,3.0,6.0,81,0.00,,,0.01,weatherlink.com 1.10,2013-02-24 18:06:00,
2013-02-24 13:21:00,80.9,74.0,29.93,WSW,250,4.0,5.0,80,0.00,,,0.01,weatherlink.com 1.10,2013-02-24 18:21:00,
2013-02-24 13:36:00,80.9,74.0,29.93,SW,221,2.0,6.0,79,0.00,,,0.01,weatherlink.com 1.10,2013-02-24 18:36:00,
2013-02-24 13:51:00,80.9,74.0,29.92,WSW,250,1.0,5.0,80,0.00,,,0.01,weatherlink.com 1.10,2013-02-24 18:51:00,
2013-02-24 14:06:00,81.2,74.0,29.92,West,261,2.0,5.0,79,0.00,,,0.01,weatherlink.com 1.10,2013-02-24 19:06:00,
2013-02-24 14:22:00,81.2,74.0,29.92,WSW,255,2.0,6.0,79,0.00,,,0.01,weatherlink.com 1.10,2013-02-24 19:22:00,
2013-02-24 14:37:00,81.1,74.0,29.91,WSW,252,1.0,5.0,79,0.00,,,0.01,weatherlink.com 1.10,2013-02-24 19:37:00,
2013-02-24 14:52:00,81.5,74.0,29.91,West,263,5.0,7.0,79,0.00,,,0.01,weatherlink.com 1.10,2013-02-24 19:52:00,
2013-02-24 15:08:00,81.9,74.0,29.91,WSW,256,4.0,5.0,78,0.00,,,0.01,weatherlink.com 1.10,2013-02-24 20:08:00,
2013-02-24 15:22:00,81.0,74.0,29.91,WSW,237,2.0,6.0,78,0.00,,,0.01,weatherlink.com 1.10,2013-02-24 20:22:00,
2013-02-24 15:37:00,79.4,73.0,29.91,WSW,242,3.0,7.0,81,0.00,,,0.01,weatherlink.com 1.10,2013-02-24 20:37:00,
2013-02-24 15:52:00,78.7,73.0,29.91,WSW,252,1.0,7.0,83,0.00,,,0.01,weatherlink.com 1.10,2013-02-24 20:52:00,
2013-02-24 16:07:00,78.6,73.0,29.91,WSW,249,0.0,12.0,83,0.00,,,0.01,weatherlink.com 1.10,2013-02-24 21:07:00,
2013-02-24 16:22:00,78.2,73.0,29.91,WSW,249,3.0,7.0,83,0.00,,,0.01,weatherlink.com 1.10,2013-02-24 21:22:00,
2013-02-24 16:38:00,77.6,72.0,29.92,WSW,247,3.0,8.0,83,0.00,,,0.01,weatherlink.com 1.10,2013-02-24 21:38:00,
2013-02-24 16:53:00,76.7,72.0,29.91,West,259,2.0,8.0,85,0.00,,,0.01,weatherlink.com 1.10,2013-02-24 21:53:00,
2013-02-24 17:08:00,75.7,72.0,29.91,SW,236,2.0,5.0,87,0.00,,,0.01,weatherlink.com 1.10,2013-02-24 22:08:00,
2013-02-24 17:24:00,75.2,72.0,29.91,West,259,4.0,6.0,88,0.00,,,0.01,weatherlink.com 1.10,2013-02-24 22:24:00,
2013-02-24 17:39:00,74.8,71.0,29.91,WSW,258,2.0,5.0,88,0.00,,,0.01,weatherlink.com 1.10,2013-02-24 22:39:00,
2013-02-24 17:53:00,74.3,71.0,29.91,WSW,257,3.0,4.0,89,0.00,,,0.01,weatherlink.com 1.10,2013-02-24 22:53:00,
2013-02-24 18:09:00,73.4,70.0,29.91,WSW,257,0.0,3.0,90,0.00,,,0.01,weatherlink.com 1.10,2013-02-24 23:09:00,
2013-02-24 18:23:00,72.7,70.0,29.91,WSW,257,1.0,3.0,91,0.00,,,0.01,weatherlink.com 1.10,2013-02-24 23:23:00,
2013-02-24 18:38:00,72.1,70.0,29.92,WSW,254,0.0,3.0,92,0.00,,,0.01,weatherlink.com 1.10,2013-02-24 23:38:00,
2013-02-24 18:53:00,71.9,70.0,29.91,WSW,254,0.0,2.0,93,0.00,,,0.01,weatherlink.com 1.10,2013-02-24 23:53:00,
2013-02-24 19:09:00,71.5,70.0,29.91,WSW,254,0.0,3.0,94,0.00,,,0.01,weatherlink.com 1.10,2013-02-25 00:09:00,
2013-02-24 19:23:00,71.3,70.0,29.92,WSW,254,1.0,2.0,94,0.00,,,0.01,weatherlink.com 1.10,2013-02-25 00:23:00,
2013-02-24 19:39:00,70.9,69.0,29.92,WSW,254,1.0,3.0,94,0.00,,,0.01,weatherlink.com 1.10,2013-02-25 00:39:00,
2013-02-24 19:54:00,70.8,69.0,29.92,WSW,254,0.0,2.0,94,0.00,,,0.01,weatherlink.com 1.10,2013-02-25 00:54:00,
2013-02-24 20:10:00,70.8,69.0,29.93,WSW,254,0.0,3.0,95,0.00,,,0.01,weatherlink.com 1.10,2013-02-25 01:10:00,
2013-02-24 20:25:00,70.7,69.0,29.92,WSW,254,0.0,2.0,95,0.00,,,0.01,weatherlink.com 1.10,2013-02-25 01:25:00,
2013-02-24 20:40:00,70.5,69.0,29.93,WSW,254,0.0,2.0,95,0.00,,,0.01,weatherlink.com 1.10,2013-02-25 01:40:00,
2013-02-24 20:54:00,70.3,69.0,29.93,WSW,254,0.0,2.0,95,0.00,,,0.01,weatherlink.com 1.10,2013-02-25 01:54:00,
2013-02-24 21:09:00,70.2,69.0,29.94,WSW,254,0.0,0.0,95,0.00,,,0.01,weatherlink.com 1.10,2013-02-25 02:09:00,
2013-02-24 21:24:00,69.9,69.0,29.93,WSW,254,0.0,1.0,95,0.00,,,0.01,weatherlink.com 1.10,2013-02-25 02:24:00,
2013-02-24 21:39:00,69.7,68.0,29.94,WSW,254,0.0,0.0,95,0.00,,,0.01,weatherlink.com 1.10,2013-02-25 02:39:00,
2013-02-24 21:55:00,69.7,68.0,29.94,WSW,254,0.0,1.0,95,0.00,,,0.01,weatherlink.com 1.10,2013-02-25 02:55:00,
2013-02-24 22:10:00,69.7,69.0,29.94,WSW,254,0.0,0.0,96,0.00,,,0.01,weatherlink.com 1.10,2013-02-25 03:10:00,
2013-02-24 22:25:00,69.9,69.0,29.93,WSW,254,0.0,1.0,96,0.00,,,0.01,weatherlink.com 1.10,2013-02-25 03:25:00,
2013-02-24 22:40:00,69.9,69.0,29.92,WSW,254,0.0,2.0,96,0.00,,,0.01,weatherlink.com 1.10,2013-02-25 03:40:00,
2013-02-24 22:55:00,70.0,69.0,29.92,WSW,254,0.0,1.0,96,0.00,,,0.01,weatherlink.com 1.10,2013-02-25 03:55:00,
2013-02-24 23:10:00,70.2,69.0,29.90,WSW,254,0.0,2.0,96,0.00,,,0.01,weatherlink.com 1.10,2013-02-25 04:10:00,
2013-02-24 23:25:00,70.2,69.0,29.91,WSW,254,1.0,1.0,96,0.00,,,0.01,weatherlink.com 1.10,2013-02-25 04:25:00,
2013-02-24 23:40:00,70.1,69.0,29.89,WSW,254,0.0,1.0,96,0.00,,,0.01,weatherlink.com 1.10,2013-02-25 04:40:00,
2013-02-24 23:55:00,70.1,69.0,29.90,WSW,254,0.0,1.0,96,0.00,,,0.01,weatherlink.com 1.10,2013-02-25 04:55:00,